Terminal Aerodrome Forecast
Issued by NWS

Home | Current Version | Previous Version | Text Only | Print | Product List | Glossary On
Versions: 1 2 3 4 5 6 7 8 9 10 11 12 13 14
000
FTUS46 KHNX 210529
TAFVIS
TAF
KVIS 210529Z 2106/2206 VRB03KT P6SM SCT120
      TEMPO 2107/2110 5SM BR
     FM211000 VRB03KT 3SM BR SCT015 SCT050
      TEMPO 2111/2115 1SM BR BKN015
     FM211900 VRB03KT 5SM BR SCT035 BKN050=

USA.gov is the U.S. government's official web portal to all federal, state and local government web resources and services.